Ugnu Kuparuk, AK

4:06 AM AKST on February 07, 2016 (GMT -0900)
Kuparuk | | Change Station
CLOSE
Current Station
Airport
Location: Kuparuk,
Elevation: 66 ft
Nearby Weather Stations

Elev 66 ft 70.33 °N, 149.60 °W | Updated 21 minutes ago

Blowing Snow
Blowing Snow Mist
-13 °F
Feels Like -38 °F
N
18
Wind Variable Wind from ENE

Today
High -- | Low -- °F
--% Chance of Precip.
Yesterday
High -- | Low -- °F
Precip. -- in
Pressure 30.20 in
Visibility 3.0 miles
Clouds Mostly Cloudy 900 ft
Windchill -38 °F
Dew Point -22 °F
Humidity 64%
Rainfall 0.00 in
Snow Depth Not available.
10:16 AM 4:09 PM
Waning Crescent, 2% visible
METAR PAKU 071245Z 07016KT 3SM R06/P6000FT BLSN BR BKN009 M25/M30 A3020
Pressure 30.20 in
Visibility 3.0 miles
Clouds Mostly Cloudy 900 ft
Windchill -38 °F
Dew Point -22 °F
Humidity 64%
Rainfall 0.00 in
Snow Depth Not available.
10:16 AM 4:09 PM
Waning Crescent, 2% visible
METAR PAKU 071245Z 07016KT 3SM R06/P6000FT BLSN BR BKN009 M25/M30 A3020

10-Day Weather Forecast

Almanac

Astronomy

Feb. 07, 2016 Rise Set
Actual Time
Civil Twilight
Nautical Twilight
Astronomical Twilight
Moon
Length of Visible Light
Length of Day
Tomorrow will be .
, % of the Moon is Illuminated

Today's Extremes

State Highs State Lows

Community

WunderPhotos

Upload Photos

1,891,189 photos uploaded!

WunderBlog® & News

Nearby

Air Quality

  Air Quality AQ Index Pollutant
Not available.

Snow Depth

Station Depth Elevation

Earthquake Activity

City Distance Mag. Time & Date
Minimum magnitude displayed is 2.5.

Coastal Water Temperatures

Place Temperature

Stations

Nearby Weather Stations

Station Location Temp. Windchill Dew Point Humidity Wind Precip. Elev Updated Type
                   

Watches & Warnings

There are currently no watches in effect.